createdAt,value
2022-11-10T00:01:11.572Z,101638.47
2022-11-10T00:03:40.557Z,101641.06
2022-11-10T00:06:09.891Z,101644.50
2022-11-10T00:08:37.955Z,101654.84
2022-11-10T00:11:09.029Z,101660.84
2022-11-10T00:13:59.816Z,101664.38
2022-11-10T00:16:56.221Z,101659.94
2022-11-10T00:19:23.679Z,101669.47
2022-11-10T00:21:51.149Z,101670.38
2022-11-10T00:24:18.565Z,101661.66
2022-11-10T00:26:46.009Z,101661.59
2022-11-10T00:29:13.555Z,101673.75
2022-11-10T00:31:42.249Z,101679.88
2022-11-10T00:34:14.085Z,101677.28
2022-11-10T00:36:41.837Z,101676.47
2022-11-10T00:39:09.412Z,101674.81
2022-11-10T00:41:36.844Z,101670.59
2022-11-10T00:44:04.388Z,101686.19
2022-11-10T00:46:31.829Z,101690.56
2022-11-10T00:48:59.302Z,101683.69
2022-11-10T00:51:29.191Z,101686.25
2022-11-10T00:53:56.772Z,101690.53
2022-11-10T00:56:25.469Z,101696.53
2022-11-10T00:58:53.316Z,101701.66
2022-11-10T01:01:23.983Z,101698.13
2022-11-10T01:03:52.939Z,101698.97
2022-11-10T01:06:21.833Z,101714.56
2022-11-10T01:08:49.527Z,101711.06
2022-11-10T01:11:21.169Z,101701.47
2022-11-10T01:13:48.671Z,101700.53
2022-11-10T01:16:27.689Z,101706.63
2022-11-10T01:19:01.348Z,101717.03
2022-11-10T01:21:30.394Z,101723.97
2022-11-10T01:23:58.367Z,101724.00
2022-11-10T01:26:25.954Z,101727.47
2022-11-10T01:28:53.465Z,101720.59
2022-11-10T01:31:22.704Z,101718.00
2022-11-10T01:33:50.209Z,101724.09
2022-11-10T01:36:17.767Z,101718.00
2022-11-10T01:38:45.634Z,101718.81
2022-11-10T01:41:14.867Z,101723.97
2022-11-10T01:43:42.727Z,101720.44
2022-11-10T01:46:12.711Z,101724.78
2022-11-10T01:48:45.957Z,101726.47
2022-11-10T01:51:32.093Z,101734.28
2022-11-10T01:54:04.009Z,101738.59
2022-11-10T01:56:35.050Z,101749.88
2022-11-10T01:59:08.958Z,101746.41
2022-11-10T02:01:36.523Z,101757.72
2022-11-10T02:04:07.397Z,101752.53
2022-11-10T02:06:39.491Z,101763.78
2022-11-10T02:09:07.639Z,101749.88
2022-11-10T02:11:36.695Z,101758.56
2022-11-10T02:14:05.307Z,101761.13
2022-11-10T02:16:33.846Z,101761.97
2022-11-10T02:19:21.254Z,101770.59
2022-11-10T02:21:48.978Z,101772.31
2022-11-10T02:24:16.593Z,101770.59
2022-11-10T02:26:54.815Z,101764.47
2022-11-10T02:29:23.829Z,101765.34
2022-11-10T02:31:51.277Z,101772.28
2022-11-10T02:34:19.557Z,101780.06
2022-11-10T02:36:46.997Z,101777.47
2022-11-10T02:39:14.424Z,101769.69
2022-11-10T02:41:41.880Z,101775.75
2022-11-10T02:44:09.710Z,101786.97
2022-11-10T02:46:37.512Z,101783.53
2022-11-10T02:49:05.465Z,101786.13
2022-11-10T02:51:33.054Z,101784.38
2022-11-10T02:54:00.673Z,101806.06
2022-11-10T02:56:28.117Z,101797.44
2022-11-10T02:58:55.535Z,101801.69
2022-11-10T03:01:22.983Z,101802.53
2022-11-10T03:03:50.616Z,101805.13
2022-11-10T03:06:18.174Z,101805.94
2022-11-10T03:08:45.710Z,101803.34
2022-11-10T03:11:13.424Z,101805.00
2022-11-10T03:14:00.284Z,101808.44
2022-11-10T03:16:28.320Z,101794.59
2022-11-10T03:18:55.746Z,101806.59
2022-11-10T03:21:23.288Z,101819.63
2022-11-10T03:23:50.749Z,101818.72
2022-11-10T03:26:18.613Z,101822.13
2022-11-10T03:28:46.062Z,101827.31
2022-11-10T03:31:13.912Z,101826.44
2022-11-10T03:33:41.376Z,101829.00
2022-11-10T03:36:09.015Z,101823.78
2022-11-10T03:38:36.453Z,101829.06
2022-11-10T03:41:18.658Z,101827.28
2022-11-10T03:43:46.661Z,101838.50
2022-11-10T03:46:14.110Z,101835.88
2022-11-10T03:48:41.549Z,101844.53
2022-11-10T03:51:09.040Z,101850.63
2022-11-10T03:53:36.584Z,101861.03
2022-11-10T03:56:06.195Z,101871.47
2022-11-10T03:58:33.797Z,101872.34
2022-11-10T04:01:01.309Z,101884.41
2022-11-10T04:03:28.771Z,101894.78
2022-11-10T04:06:13.933Z,101887.03
2022-11-10T04:08:58.777Z,101896.44
2022-11-10T04:11:44.637Z,101905.16
2022-11-10T04:14:29.902Z,101905.94
2022-11-10T04:16:57.638Z,101910.34
2022-11-10T04:19:25.156Z,101910.28
2022-11-10T04:21:52.575Z,101924.13
2022-11-10T04:24:20.016Z,101916.28
2022-11-10T04:26:48.626Z,101930.19
2022-11-10T04:29:20.950Z,101925.84
2022-11-10T04:31:48.307Z,101925.91
2022-11-10T04:34:16.632Z,101928.47
2022-11-10T04:36:46.015Z,101928.47
2022-11-10T04:39:13.518Z,101920.66
2022-11-10T04:41:40.974Z,101928.47
2022-11-10T04:44:08.510Z,101924.94
2022-11-10T04:46:39.026Z,101928.44
2022-11-10T04:49:07.899Z,101935.34
2022-11-10T04:51:38.377Z,101949.25
2022-11-10T04:54:08.185Z,101947.50
2022-11-10T04:56:35.665Z,101956.06
2022-11-10T04:59:03.099Z,101951.75
2022-11-10T05:01:30.587Z,101950.84
2022-11-10T05:03:59.083Z,101955.25
2022-11-10T05:06:26.536Z,101969.09
2022-11-10T05:08:54.013Z,101961.16
2022-11-10T05:11:21.478Z,101963.72
2022-11-10T05:13:49.055Z,101967.22
2022-11-10T05:16:16.590Z,101955.94
2022-11-10T05:18:44.042Z,101972.41
2022-11-10T05:21:11.495Z,101972.34
2022-11-10T05:23:39.043Z,101967.16
2022-11-10T05:26:17.878Z,101968.81
2022-11-10T05:28:47.361Z,101980.94
2022-11-10T05:31:14.786Z,101974.09
2022-11-10T05:33:42.264Z,101980.94
2022-11-10T05:36:11.492Z,101982.72
2022-11-10T05:38:43.248Z,101973.16
2022-11-10T05:41:11.097Z,101973.09
2022-11-10T05:43:38.620Z,101964.38
2022-11-10T05:46:06.203Z,101977.34
2022-11-10T05:48:33.646Z,101970.56
2022-11-10T05:51:01.100Z,101972.28
2022-11-10T05:53:28.564Z,101974.91
2022-11-10T05:55:56.107Z,101983.56
2022-11-10T05:58:23.701Z,101973.13
2022-11-10T06:00:51.192Z,101977.47
2022-11-10T06:03:20.593Z,101979.22
2022-11-10T06:05:48.347Z,101988.88
2022-11-10T06:08:17.692Z,101995.78
2022-11-10T06:10:45.220Z,101987.16
2022-11-10T06:13:12.710Z,101999.28
2022-11-10T06:15:40.143Z,102014.78
2022-11-10T06:18:07.667Z,102016.53
2022-11-10T06:20:35.188Z,102031.22
2022-11-10T06:23:05.376Z,102028.72
2022-11-10T06:25:35.417Z,102042.47
2022-11-10T06:28:03.860Z,102048.59
2022-11-10T06:30:32.837Z,102050.19
2022-11-10T06:33:00.888Z,102061.53
2022-11-10T06:35:29.544Z,102051.19
2022-11-10T06:38:05.253Z,102056.44
2022-11-10T06:40:34.240Z,102052.06
2022-11-10T06:43:02.591Z,102053.78
2022-11-10T06:45:30.326Z,102060.63
2022-11-10T06:48:15.933Z,102058.00
2022-11-10T06:50:43.386Z,102065.84
2022-11-10T06:53:10.852Z,102065.84
2022-11-10T06:55:38.297Z,102074.44
2022-11-10T06:58:05.795Z,102079.69
2022-11-10T07:00:33.240Z,102096.16
2022-11-10T07:03:08.757Z,102106.56
2022-11-10T07:05:37.797Z,102114.38
2022-11-10T07:08:13.600Z,102125.63
2022-11-10T07:10:41.081Z,102114.38
2022-11-10T07:13:08.949Z,102115.13
2022-11-10T07:15:36.914Z,102109.22
2022-11-10T07:18:05.104Z,102124.75
2022-11-10T07:20:33.172Z,102114.22
2022-11-10T07:23:06.849Z,102116.09
2022-11-10T07:25:37.148Z,102115.25
2022-11-10T07:28:10.523Z,102108.34
2022-11-10T07:30:38.208Z,102103.22
2022-11-10T07:33:08.618Z,102100.69
2022-11-10T07:35:36.409Z,102114.53
2022-11-10T07:38:06.861Z,102112.84
2022-11-10T07:40:34.929Z,102117.19
2022-11-10T07:43:02.803Z,102119.84
2022-11-10T07:45:31.683Z,102132.13
2022-11-10T07:48:07.405Z,102149.44
2022-11-10T07:50:35.311Z,102151.31
2022-11-10T07:53:07.487Z,102141.94
2022-11-10T07:55:35.678Z,102145.38
2022-11-10T07:58:03.239Z,102144.63
2022-11-10T08:00:31.237Z,102146.44
2022-11-10T08:03:11.770Z,102134.31
2022-11-10T08:05:40.359Z,102141.47
2022-11-10T08:08:08.333Z,102159.00
2022-11-10T08:10:36.594Z,102159.13
2022-11-10T08:13:09.466Z,102164.53
2022-11-10T08:15:37.508Z,102153.44
2022-11-10T08:18:23.062Z,102155.41
2022-11-10T08:20:50.632Z,102154.59
2022-11-10T08:23:18.548Z,102162.53
2022-11-10T08:25:47.983Z,102162.59
2022-11-10T08:28:18.101Z,102164.63
2022-11-10T08:30:47.497Z,102162.13
2022-11-10T08:33:19.884Z,102174.44
2022-11-10T08:35:52.329Z,102184.16
2022-11-10T08:38:24.776Z,102179.06
2022-11-10T08:40:52.558Z,102179.22
2022-11-10T08:43:20.519Z,102178.28
2022-11-10T08:45:48.457Z,102186.19
2022-11-10T08:48:21.052Z,102178.28
2022-11-10T08:50:50.193Z,102194.03
2022-11-10T08:53:23.867Z,102184.50
2022-11-10T08:55:53.133Z,102192.31
2022-11-10T08:58:23.576Z,102196.84
2022-11-10T09:00:51.804Z,102191.59
2022-11-10T09:03:23.493Z,102199.41
2022-11-10T09:05:57.684Z,102190.03
2022-11-10T09:08:25.678Z,102197.09
2022-11-10T09:10:53.276Z,102203.19
2022-11-10T09:13:27.719Z,102193.72
2022-11-10T09:16:01.007Z,102187.78
2022-11-10T09:18:29.068Z,102193.13
2022-11-10T09:20:56.683Z,102194.91
2022-11-10T09:23:25.240Z,102187.28
2022-11-10T09:25:56.016Z,102187.28
2022-11-10T09:28:24.780Z,102192.59
2022-11-10T09:30:52.995Z,102193.75
2022-11-10T09:33:20.963Z,102186.03
2022-11-10T09:35:48.797Z,102194.97
2022-11-10T09:38:16.309Z,102200.19
2022-11-10T09:41:02.533Z,102204.66
2022-11-10T09:43:42.748Z,102204.72
2022-11-10T09:46:37.100Z,102208.38
2022-11-10T09:49:18.597Z,102222.34
2022-11-10T09:51:48.440Z,102224.09
2022-11-10T09:54:38.065Z,102234.66
2022-11-10T09:57:08.213Z,102220.69
2022-11-10T09:59:36.259Z,102232.13
2022-11-10T10:02:20.957Z,102227.75
2022-11-10T10:05:16.303Z,102239.91
2022-11-10T10:08:05.236Z,102242.53
2022-11-10T10:10:55.956Z,102252.97
2022-11-10T10:13:42.265Z,102241.66
2022-11-10T10:16:27.972Z,102266.97
2022-11-10T10:19:07.858Z,102275.75
2022-11-10T10:22:14.185Z,102281.03
2022-11-10T10:24:42.055Z,102267.94
2022-11-10T10:27:18.658Z,102269.72
2022-11-10T10:29:50.405Z,102281.94
2022-11-10T10:32:18.873Z,102273.22
2022-11-10T10:34:47.171Z,102277.59
2022-11-10T10:37:23.540Z,102275.84
2022-11-10T10:39:55.175Z,102269.72
2022-11-10T10:42:33.810Z,102256.63
2022-11-10T10:45:14.585Z,102255.75
2022-11-10T10:47:42.566Z,102262.75
2022-11-10T10:50:37.161Z,102266.22
2022-11-10T10:53:33.914Z,102258.38
2022-11-10T10:56:20.160Z,102273.22
2022-11-10T10:58:59.690Z,102271.50
2022-11-10T11:01:40.502Z,102274.97
2022-11-10T11:04:35.864Z,102286.31
2022-11-10T11:07:07.489Z,102283.72
2022-11-10T11:09:44.433Z,102285.44
2022-11-10T11:12:32.993Z,102286.25
2022-11-10T11:15:21.760Z,102298.50
2022-11-10T11:18:03.756Z,102295.91
2022-11-10T11:20:51.669Z,102304.66
2022-11-10T11:23:58.275Z,102306.31
2022-11-10T11:26:36.865Z,102323.84
2022-11-10T11:29:25.054Z,102321.19
2022-11-10T11:32:12.136Z,102336.00
2022-11-10T11:34:48.348Z,102337.75
2022-11-10T11:37:26.755Z,102341.28
2022-11-10T11:40:32.365Z,102342.16
2022-11-10T11:43:15.566Z,102333.41
2022-11-10T11:45:51.428Z,102344.75
2022-11-10T11:48:53.853Z,102349.16
2022-11-10T11:51:27.189Z,102348.28
2022-11-10T11:54:09.653Z,102350.03
2022-11-10T11:56:42.305Z,102344.78
2022-11-10T11:59:28.473Z,102348.28
2022-11-10T12:02:34.028Z,102364.00
2022-11-10T12:05:21.603Z,102340.41
2022-11-10T12:08:15.094Z,102337.81
2022-11-10T12:10:54.600Z,102343.03
2022-11-10T12:13:36.508Z,102336.06
2022-11-10T12:16:30.205Z,102333.44
2022-11-10T12:19:27.405Z,102336.91
2022-11-10T12:22:02.019Z,102337.78
2022-11-10T12:24:58.432Z,102341.28
2022-11-10T12:27:38.539Z,102320.34
2022-11-10T12:30:11.794Z,102350.03
2022-11-10T12:33:03.510Z,102357.88
2022-11-10T12:35:35.173Z,102351.78
2022-11-10T12:38:15.391Z,102357.91
2022-11-10T12:41:15.748Z,102373.59
2022-11-10T12:43:52.084Z,102376.25
2022-11-10T12:46:19.620Z,102356.97
2022-11-10T12:49:07.405Z,102369.22
2022-11-10T12:52:01.439Z,102364.00
2022-11-10T12:54:32.269Z,102364.88
2022-11-10T12:57:08.074Z,102357.00
2022-11-10T12:59:38.734Z,102362.25
2022-11-10T13:02:17.292Z,102369.22
2022-11-10T13:04:44.913Z,102368.38
2022-11-10T13:07:14.352Z,102375.38
2022-11-10T13:09:45.842Z,102370.97
2022-11-10T13:12:19.770Z,102362.22
2022-11-10T13:14:48.317Z,102356.13
2022-11-10T13:17:27.949Z,102366.59
2022-11-10T13:20:20.876Z,102360.50
2022-11-10T13:22:48.364Z,102352.66
2022-11-10T13:25:37.901Z,102345.69
2022-11-10T13:28:09.185Z,102341.31
2022-11-10T13:30:46.085Z,102346.56
2022-11-10T13:33:36.932Z,102333.47
2022-11-10T13:36:05.434Z,102343.06
2022-11-10T13:38:36.758Z,102262.72
2022-11-10T13:41:34.351Z,102363.16
2022-11-10T13:44:02.544Z,102345.66
2022-11-10T13:46:38.623Z,102357.00
2022-11-10T13:49:19.785Z,102350.88
2022-11-10T13:52:17.095Z,102350.88
2022-11-10T13:54:59.557Z,102346.50
2022-11-10T13:57:26.872Z,102346.53
2022-11-10T14:00:01.208Z,102341.28
2022-11-10T14:02:36.205Z,102348.25
2022-11-10T14:05:08.795Z,102337.78
2022-11-10T14:07:41.046Z,102352.59
2022-11-10T14:10:12.945Z,102362.22
2022-11-10T14:12:47.254Z,102370.94
2022-11-10T14:15:21.329Z,102375.28
2022-11-10T14:17:52.558Z,102379.63
2022-11-10T14:20:30.885Z,102384.91
2022-11-10T14:22:59.005Z,102396.25
2022-11-10T14:25:34.827Z,102393.66
2022-11-10T14:28:02.547Z,102391.00
2022-11-10T14:30:33.328Z,102384.88
2022-11-10T14:33:10.575Z,102391.88
2022-11-10T14:35:54.536Z,102388.41
2022-11-10T14:38:25.346Z,102398.88
2022-11-10T14:40:58.917Z,102396.22
2022-11-10T14:43:59.453Z,102404.06
2022-11-10T14:46:26.892Z,102406.66
2022-11-10T14:48:59.624Z,102404.06
2022-11-10T14:51:29.868Z,102413.59
2022-11-10T14:53:58.935Z,102388.28
2022-11-10T14:56:37.449Z,102407.47
2022-11-10T14:59:07.478Z,102413.56
2022-11-10T15:01:39.049Z,102412.72
2022-11-10T15:04:09.355Z,102395.25
2022-11-10T15:06:37.382Z,102405.72
2022-11-10T15:09:32.567Z,102404.78
2022-11-10T15:12:28.041Z,102412.66
2022-11-10T15:15:01.137Z,102416.09
2022-11-10T15:17:45.799Z,102424.78
2022-11-10T15:20:41.934Z,102416.94
2022-11-10T15:23:32.125Z,102422.97
2022-11-10T15:26:00.839Z,102424.69
2022-11-10T15:28:31.537Z,102422.88
2022-11-10T15:31:02.280Z,102424.63
2022-11-10T15:33:34.817Z,102435.00
2022-11-10T15:36:20.511Z,102441.97
2022-11-10T15:39:15.362Z,102448.88
2022-11-10T15:41:51.057Z,102442.72
2022-11-10T15:44:21.165Z,102440.09
2022-11-10T15:46:52.057Z,102456.69
2022-11-10T15:49:32.134Z,102454.84
2022-11-10T15:52:02.669Z,102465.25
2022-11-10T15:54:36.647Z,102453.06
2022-11-10T15:57:04.428Z,102459.13
2022-11-10T15:59:31.891Z,102453.03
2022-11-10T16:02:00.164Z,102450.41
2022-11-10T16:04:28.175Z,102462.66
2022-11-10T16:06:56.897Z,102460.03
2022-11-10T16:09:24.373Z,102462.66
2022-11-10T16:11:51.851Z,102467.03
2022-11-10T16:14:19.497Z,102460.88
2022-11-10T16:16:46.979Z,102475.72
2022-11-10T16:19:14.424Z,102472.19
2022-11-10T16:21:41.938Z,102483.47
2022-11-10T16:24:09.889Z,102490.44
2022-11-10T16:26:37.542Z,102483.44
2022-11-10T16:29:11.812Z,102486.06
2022-11-10T16:31:39.299Z,102500.91
2022-11-10T16:34:06.738Z,102501.75
2022-11-10T16:36:35.418Z,102504.34
2022-11-10T16:39:04.085Z,102498.19
2022-11-10T16:41:31.535Z,102507.78
2022-11-10T16:43:59.004Z,102497.31
2022-11-10T16:46:29.588Z,102514.78
2022-11-10T16:49:00.167Z,102512.13
2022-11-10T16:51:38.171Z,102513.00
2022-11-10T16:54:05.664Z,102509.44
2022-11-10T16:56:33.246Z,102522.59
2022-11-10T16:59:00.730Z,102519.09
2022-11-10T17:01:31.780Z,102521.69
2022-11-10T17:04:06.978Z,102526.88
2022-11-10T17:06:34.936Z,102530.34
2022-11-10T17:09:17.165Z,102528.56
2022-11-10T17:11:44.651Z,102514.56
2022-11-10T17:14:14.069Z,102518.06
2022-11-10T17:16:45.254Z,102526.72
2022-11-10T17:19:23.415Z,102532.78
2022-11-10T17:21:52.385Z,102547.56
2022-11-10T17:24:19.928Z,102542.34
2022-11-10T17:26:48.236Z,102536.19
2022-11-10T17:29:20.977Z,102545.78
2022-11-10T17:31:50.178Z,102544.88
2022-11-10T17:34:17.686Z,102537.00
2022-11-10T17:36:45.506Z,102533.50
2022-11-10T17:39:15.569Z,102535.19
2022-11-10T17:41:43.746Z,102534.22
2022-11-10T17:44:16.154Z,102537.63
2022-11-10T17:46:44.196Z,102543.69
2022-11-10T17:49:11.691Z,102534.84
2022-11-10T17:51:40.434Z,102535.69
2022-11-10T17:54:14.523Z,102541.69
2022-11-10T17:56:42.736Z,102542.50
2022-11-10T17:59:10.214Z,102529.34
2022-11-10T18:01:37.702Z,102527.50
2022-11-10T18:04:05.163Z,102536.09
2022-11-10T18:06:32.887Z,102527.38
2022-11-10T18:09:00.339Z,102538.63
2022-11-10T18:11:27.753Z,102543.78
2022-11-10T18:13:55.220Z,102542.78
2022-11-10T18:16:23.341Z,102537.44
2022-11-10T18:18:50.762Z,102539.13
2022-11-10T18:21:18.264Z,102532.03
2022-11-10T18:23:45.768Z,102542.44
2022-11-10T18:26:13.197Z,102545.78
2022-11-10T18:28:42.028Z,102528.28
2022-11-10T18:31:12.477Z,102526.47
2022-11-10T18:33:39.999Z,102549.00
2022-11-10T18:36:08.765Z,102540.25
2022-11-10T18:38:36.425Z,102544.56
2022-11-10T18:41:22.083Z,102552.25
2022-11-10T18:43:49.617Z,102548.75
2022-11-10T18:46:17.195Z,102558.22
2022-11-10T18:48:46.486Z,102555.50
2022-11-10T18:51:14.024Z,102559.81
2022-11-10T18:53:41.537Z,102558.03
2022-11-10T18:56:09.048Z,102557.09
2022-11-10T18:58:36.481Z,102552.72
2022-11-10T19:01:08.801Z,102549.22
2022-11-10T19:03:36.880Z,102571.84
2022-11-10T19:06:05.105Z,102567.50
2022-11-10T19:08:32.614Z,102577.03
2022-11-10T19:11:00.103Z,102581.31
2022-11-10T19:13:27.646Z,102575.28
2022-11-10T19:16:00.015Z,102579.59
2022-11-10T19:18:30.172Z,102581.34
2022-11-10T19:20:57.670Z,102581.41
2022-11-10T19:23:25.515Z,102587.44
2022-11-10T19:26:01.389Z,102586.50
2022-11-10T19:28:29.876Z,102582.97
2022-11-10T19:31:27.231Z,102581.16
2022-11-10T19:33:56.499Z,102593.22
2022-11-10T19:36:26.579Z,102589.69
2022-11-10T19:38:55.149Z,102591.31
2022-11-10T19:41:27.752Z,102590.41
2022-11-10T19:43:55.790Z,102603.38
2022-11-10T19:46:28.764Z,102605.88
2022-11-10T19:48:56.525Z,102612.75
2022-11-10T19:51:25.714Z,102614.50
2022-11-10T19:54:01.346Z,102609.28
2022-11-10T19:56:31.919Z,102598.00
2022-11-10T19:59:00.039Z,102609.28
2022-11-10T20:01:27.801Z,102611.03
2022-11-10T20:03:55.359Z,102602.38
2022-11-10T20:06:23.634Z,102599.78
2022-11-10T20:08:51.421Z,102602.38
2022-11-10T20:11:23.938Z,102606.69
2022-11-10T20:13:55.222Z,102599.56
2022-11-10T20:16:23.707Z,102608.13
2022-11-10T20:18:51.136Z,102605.38
2022-11-10T20:21:23.528Z,102599.28
2022-11-10T20:23:57.676Z,102599.13
2022-11-10T20:26:26.049Z,102614.81
2022-11-10T20:28:53.483Z,102611.28
2022-11-10T20:31:24.284Z,102625.09
2022-11-10T20:33:53.545Z,102617.34
2022-11-10T20:36:27.259Z,102628.59
2022-11-10T20:38:56.889Z,102621.66
2022-11-10T20:41:29.581Z,102620.75
2022-11-10T20:43:57.097Z,102632.06
2022-11-10T20:49:12.010Z,102637.19
2022-11-10T20:51:39.505Z,102631.09
2022-11-10T20:54:06.994Z,102631.09
2022-11-10T20:56:34.419Z,102626.69
2022-11-10T20:59:01.850Z,102638.00
2022-11-10T21:01:29.820Z,102641.50
2022-11-10T21:03:57.385Z,102634.69
2022-11-10T21:06:24.816Z,102633.03
2022-11-10T21:08:53.500Z,102614.81
2022-11-10T21:11:34.860Z,102624.38
2022-11-10T21:14:02.679Z,102630.50
2022-11-10T21:16:30.108Z,102636.59
2022-11-10T21:18:58.018Z,102653.16
2022-11-10T21:21:27.911Z,102655.84
2022-11-10T21:23:57.346Z,102661.94
2022-11-10T21:26:25.163Z,102677.63
2022-11-10T21:28:52.612Z,102679.34
2022-11-10T21:31:20.057Z,102690.59
2022-11-10T21:33:47.508Z,102694.09
2022-11-10T21:36:15.060Z,102701.97
2022-11-10T21:38:46.845Z,102708.03
2022-11-10T21:41:14.905Z,102711.50
2022-11-10T21:43:43.361Z,102708.94
2022-11-10T21:46:11.354Z,102711.53
2022-11-10T21:48:38.972Z,102708.84
2022-11-10T21:51:08.756Z,102712.31
2022-11-10T21:53:39.053Z,102714.72
2022-11-10T21:56:08.587Z,102712.84
2022-11-10T21:58:36.408Z,102710.91
2022-11-10T22:01:10.638Z,102704.69
2022-11-10T22:03:38.348Z,102705.41
2022-11-10T22:06:15.180Z,102717.41
2022-11-10T22:08:44.393Z,102707.72
2022-11-10T22:11:35.740Z,102707.81
2022-11-10T22:14:21.060Z,102718.28
2022-11-10T22:17:07.907Z,102715.66
2022-11-10T22:19:36.891Z,102707.88
2022-11-10T22:22:04.735Z,102700.09
2022-11-10T22:24:33.702Z,102709.72
2022-11-10T22:27:03.133Z,102725.31
2022-11-10T22:29:33.381Z,102728.09
2022-11-10T22:32:02.093Z,102732.38
2022-11-10T22:34:30.097Z,102734.13
2022-11-10T22:36:59.358Z,102750.75
2022-11-10T22:39:47.314Z,102739.50
2022-11-10T22:42:32.908Z,102725.63
2022-11-10T22:45:00.400Z,102737.75
2022-11-10T22:47:47.844Z,102745.50
2022-11-10T22:50:15.335Z,102759.50
2022-11-10T22:52:42.770Z,102749.06
2022-11-10T22:55:10.485Z,102755.09
2022-11-10T22:57:38.021Z,102755.00
2022-11-10T23:00:06.060Z,102753.25
2022-11-10T23:02:33.523Z,102776.72
2022-11-10T23:05:00.977Z,102766.28
2022-11-10T23:07:29.604Z,102776.63
2022-11-10T23:09:57.048Z,102785.25
2022-11-10T23:12:24.511Z,102786.88
2022-11-10T23:14:51.947Z,102773.91
2022-11-10T23:17:19.383Z,102779.06
2022-11-10T23:19:46.815Z,102779.78
2022-11-10T23:22:14.269Z,102794.47
2022-11-10T23:24:41.754Z,102791.03
2022-11-10T23:27:09.261Z,102791.88
2022-11-10T23:29:36.692Z,102795.22
2022-11-10T23:32:04.250Z,102792.72
2022-11-10T23:34:31.738Z,102786.63
2022-11-10T23:36:59.185Z,102787.53
2022-11-10T23:39:27.028Z,102772.63
2022-11-10T23:41:54.448Z,102787.38
2022-11-10T23:44:21.920Z,102786.50
2022-11-10T23:46:49.377Z,102776.94
2022-11-10T23:49:16.836Z,102759.41
2022-11-10T23:51:44.314Z,102777.75
2022-11-10T23:54:11.779Z,102781.28
2022-11-10T23:56:39.230Z,102789.03
2022-11-10T23:59:06.690Z,102797.03
